Madison Park, Washington
Current Conditions -  °F | °C
As of 1:53 PM on Tuesday 21 Oct 2014 (Local Time) from KBFI Reporting Station
Overcast Overcast  
Wind Chill: 61°   Ceiling: 5500
Heat Index: 61°   Visibility: 10mi
Dew Point: 51°   Wind: 12mph
Humidity: 70%   Direction: 160°SSE
Pressure: 29.92"   Gusts: NA
Location:  47.6326°N, 122.297°W
Report Text: KBFI 212053Z 16010KT 10SM BKN055 OVC070 16/11 A2992 RMK AO2 RAB00E38 SLP130 P0000 60000 T01610106 58000
Loading
Personal Weather Stations






























Interactive Weather Map
Tropical Storm Tracking
New forecast layout! Learn more

10-Day Weather Forecast

Advertisements
Track Severe Weather on mobile